Time;durP1;ratioP1;P1;durP2;ratioP2;P2;SDS_P1;SDS_P2;PMS_P1;PMS_P2;Temp;Humidity;BMP_temperature;BMP_pressure;BME280_temperature;BME280_humidity;BME280_pressure;Samples;Min_cycle;Max_cycle;Signal;HPM_P1;HPM_P2
2024/04/05 00:01:05;;;;;;;3.88;3.47;;;;;;;;;;2054441;28;20293;-77
2024/04/05 00:02:24;;;;;;;7.68;3.97;;;;;;;;;;2053237;28;20106;-77
2024/04/05 00:03:44;;;;;;;6.53;4.18;;;;;;;;;;2053857;28;20019;-77
2024/04/05 00:05:03;;;;;;;13.57;5.00;;;;;;;;;;2057173;28;20035;-77
2024/04/05 00:06:25;;;;;;;10.10;4.45;;;;;;;;;;2052295;28;23070;-77
2024/04/05 00:07:44;;;;;;;5.18;4.35;;;;;;;;;;2049024;28;20028;-78
2024/04/05 00:09:06;;;;;;;6.20;4.68;;;;;;;;;;2049600;28;20605;-77
2024/04/05 00:10:25;;;;;;;9.07;4.43;;;;;;;;;;2054457;28;20603;-77
2024/04/05 00:11:44;;;;;;;12.25;5.00;;;;;;;;;;2051107;28;20761;-77
2024/04/05 00:13:03;;;;;;;10.00;5.38;;;;;;;;;;2054159;28;20085;-77
2024/04/05 00:14:22;;;;;;;6.85;4.93;;;;;;;;;;2045361;28;20435;-76
2024/04/05 00:15:44;;;;;;;12.35;6.03;;;;;;;;;;2042489;28;20074;-77
2024/04/05 00:17:06;;;;;;;8.88;5.53;;;;;;;;;;2044484;28;20039;-77
2024/04/05 00:18:25;;;;;;;7.10;5.97;;;;;;;;;;2050008;28;20043;-77
2024/04/05 00:19:44;;;;;;;12.40;5.60;;;;;;;;;;2045712;28;20766;-77
2024/04/05 00:21:04;;;;;;;9.55;6.03;;;;;;;;;;2042115;28;20051;-77
2024/04/05 00:22:23;;;;;;;14.63;6.60;;;;;;;;;;2044403;28;20039;-77
2024/04/05 00:23:43;;;;;;;7.95;6.43;;;;;;;;;;2045647;28;20019;-77
2024/04/05 00:25:02;;;;;;;12.52;6.72;;;;;;;;;;2045628;28;20023;-77
2024/04/05 00:26:21;;;;;;;15.27;6.40;;;;;;;;;;2049093;28;20978;-77
2024/04/05 00:27:40;;;;;;;11.52;6.00;;;;;;;;;;2044556;28;20023;-77
2024/04/05 00:29:00;;;;;;;9.60;6.70;;;;;;;;;;2045784;28;20147;-77
2024/04/05 00:30:19;;;;;;;12.13;6.63;;;;;;;;;;2050321;28;20057;-77
2024/04/05 00:31:38;;;;;;;13.13;6.75;;;;;;;;;;2047560;28;20035;-77
2024/04/05 00:32:57;;;;;;;11.15;6.60;;;;;;;;;;2042697;28;20713;-78
2024/04/05 00:34:16;;;;;;;9.30;6.47;;;;;;;;;;2043847;28;20512;-77
2024/04/05 00:35:34;;;;;;;14.98;7.03;;;;;;;;;;2048302;28;20477;-78
2024/04/05 00:36:53;;;;;;;8.05;6.45;;;;;;;;;;2045731;28;20042;-78
2024/04/05 00:38:12;;;;;;;12.07;6.88;;;;;;;;;;2041926;28;20035;-78
2024/04/05 00:39:31;;;;;;;11.50;6.72;;;;;;;;;;2042338;28;20031;-78
2024/04/05 00:40:50;;;;;;;11.25;6.50;;;;;;;;;;2048615;28;20022;-78
2024/04/05 00:42:09;;;;;;;11.88;6.80;;;;;;;;;;2049552;28;20060;-78
2024/04/05 00:43:28;;;;;;;12.75;6.68;;;;;;;;;;2044763;28;20438;-78
2024/04/05 00:44:47;;;;;;;14.68;6.55;;;;;;;;;;2045675;28;20396;-77
2024/04/05 00:46:06;;;;;;;11.30;6.80;;;;;;;;;;2045660;28;20037;-77
2024/04/05 00:47:25;;;;;;;12.48;6.55;;;;;;;;;;2045840;28;20518;-77
2024/04/05 00:48:44;;;;;;;13.35;6.85;;;;;;;;;;2046427;28;20027;-76
2024/04/05 00:50:04;;;;;;;13.35;6.65;;;;;;;;;;2044297;28;20039;-77
2024/04/05 00:51:23;;;;;;;17.48;6.80;;;;;;;;;;2046537;28;20122;-76
2024/04/05 00:52:43;;;;;;;13.35;6.57;;;;;;;;;;2045274;28;20035;-77
2024/04/05 00:54:02;;;;;;;12.82;5.80;;;;;;;;;;2044032;28;20024;-77
2024/04/05 00:55:21;;;;;;;12.57;6.03;;;;;;;;;;2044479;28;20431;-77
2024/04/05 00:56:41;;;;;;;9.15;6.13;;;;;;;;;;2049895;28;20042;-76
2024/04/05 00:58:01;;;;;;;14.73;6.88;;;;;;;;;;2048400;28;20106;-77
2024/04/05 00:59:20;;;;;;;12.27;7.15;;;;;;;;;;2045564;28;20130;-76
2024/04/05 01:00:39;;;;;;;12.07;6.85;;;;;;;;;;2042186;28;20031;-76
2024/04/05 01:01:59;;;;;;;10.57;6.70;;;;;;;;;;2042505;28;20542;-77
2024/04/05 01:03:18;;;;;;;14.70;6.55;;;;;;;;;;2044068;28;20452;-77
2024/04/05 01:04:37;;;;;;;10.13;6.35;;;;;;;;;;2044617;28;20031;-77
2024/04/05 01:05:56;;;;;;;16.02;6.55;;;;;;;;;;2045406;28;20031;-77
2024/04/05 01:07:15;;;;;;;13.02;6.88;;;;;;;;;;2052605;28;20031;-77
2024/04/05 01:08:34;;;;;;;13.32;7.22;;;;;;;;;;2044221;28;20028;-77
2024/04/05 01:09:54;;;;;;;10.23;6.07;;;;;;;;;;2046244;28;20487;-77
2024/04/05 01:11:13;;;;;;;10.80;6.18;;;;;;;;;;2047396;28;20067;-77
2024/04/05 01:12:32;;;;;;;16.27;7.45;;;;;;;;;;2037443;29;20039;-78
2024/04/05 01:13:51;;;;;;;11.13;6.40;;;;;;;;;;2038992;28;20492;-77
2024/04/05 01:15:11;;;;;;;14.23;7.18;;;;;;;;;;2037315;29;20118;-77
2024/04/05 01:16:30;;;;;;;13.10;7.07;;;;;;;;;;2039162;29;20486;-77
2024/04/05 01:17:49;;;;;;;13.20;6.75;;;;;;;;;;2043120;28;20035;-77
2024/04/05 01:19:09;;;;;;;10.48;6.30;;;;;;;;;;2038271;28;20035;-77
2024/04/05 01:20:29;;;;;;;10.13;6.60;;;;;;;;;;2037763;29;20744;-77
2024/04/05 01:21:50;;;;;;;11.48;6.47;;;;;;;;;;2037066;29;20028;-77
2024/04/05 01:23:12;;;;;;;13.20;6.55;;;;;;;;;;2036137;29;20035;-76
2024/04/05 01:24:31;;;;;;;14.05;6.93;;;;;;;;;;2036637;29;20031;-77
2024/04/05 01:25:51;;;;;;;15.43;7.40;;;;;;;;;;2040787;28;20675;-77
2024/04/05 01:27:10;;;;;;;9.55;6.65;;;;;;;;;;2037067;29;20524;-77
2024/04/05 01:28:29;;;;;;;13.40;6.63;;;;;;;;;;2033835;29;20067;-77
2024/04/05 01:29:48;;;;;;;13.80;6.82;;;;;;;;;;2033454;29;20020;-77
2024/04/05 01:31:07;;;;;;;7.60;5.88;;;;;;;;;;2036334;29;20040;-77
2024/04/05 01:32:26;;;;;;;12.70;6.88;;;;;;;;;;2042654;28;20031;-77
2024/04/05 01:33:45;;;;;;;9.32;6.35;;;;;;;;;;2042657;28;20039;-78
2024/04/05 01:35:04;;;;;;;11.63;6.70;;;;;;;;;;2040127;28;20117;-76
2024/04/05 01:36:23;;;;;;;17.38;6.90;;;;;;;;;;2037012;29;20028;-77
2024/04/05 01:37:42;;;;;;;12.90;6.47;;;;;;;;;;2036257;29;20103;-77
2024/04/05 01:39:01;;;;;;;15.98;7.13;;;;;;;;;;2036712;29;20032;-77
2024/04/05 01:40:20;;;;;;;15.68;6.82;;;;;;;;;;2036738;29;20028;-78
2024/04/05 01:41:39;;;;;;;18.50;7.35;;;;;;;;;;2041614;28;20031;-77
2024/04/05 01:42:58;;;;;;;11.35;6.50;;;;;;;;;;2042982;28;20033;-77
2024/04/05 01:44:17;;;;;;;16.38;7.10;;;;;;;;;;2035942;29;20032;-77
2024/04/05 01:45:36;;;;;;;11.77;6.63;;;;;;;;;;2039117;28;20405;-77
2024/04/05 01:46:56;;;;;;;14.38;6.90;;;;;;;;;;2037575;28;20396;-77
2024/04/05 01:48:15;;;;;;;13.80;7.38;;;;;;;;;;2041238;28;20066;-77
2024/04/05 01:49:34;;;;;;;16.23;7.25;;;;;;;;;;2041747;28;20047;-77
2024/04/05 01:50:53;;;;;;;15.43;7.35;;;;;;;;;;2039595;28;20028;-76
2024/04/05 01:52:12;;;;;;;11.15;6.25;;;;;;;;;;2037458;29;20047;-78
2024/04/05 01:53:31;;;;;;;15.68;7.05;;;;;;;;;;2036150;29;20172;-76
2024/04/05 01:54:51;;;;;;;18.30;6.75;;;;;;;;;;2044779;28;20576;-76
2024/04/05 01:56:11;;;;;;;11.27;6.70;;;;;;;;;;2035651;29;20039;-78
2024/04/05 01:57:30;;;;;;;13.70;6.90;;;;;;;;;;2036550;29;20055;-76
2024/04/05 01:58:49;;;;;;;12.70;6.30;;;;;;;;;;2040864;28;20043;-76
2024/04/05 02:00:08;;;;;;;12.48;6.68;;;;;;;;;;2035757;29;20036;-77
2024/04/05 02:01:27;;;;;;;15.52;6.93;;;;;;;;;;2036465;29;20118;-77
2024/04/05 02:02:47;;;;;;;14.88;6.65;;;;;;;;;;2036021;29;20115;-77
2024/04/05 02:04:06;;;;;;;9.43;6.35;;;;;;;;;;2036851;29;20032;-77
2024/04/05 02:05:25;;;;;;;13.63;7.22;;;;;;;;;;2035752;29;20027;-76
2024/04/05 02:06:44;;;;;;;16.50;7.10;;;;;;;;;;2043222;28;20135;-76
2024/04/05 02:08:04;;;;;;;10.70;6.38;;;;;;;;;;2039950;28;20028;-76
2024/04/05 02:09:22;;;;;;;15.50;6.78;;;;;;;;;;2035819;29;20036;-78
2024/04/05 02:10:41;;;;;;;13.43;6.88;;;;;;;;;;2036071;29;20031;-77
2024/04/05 02:12:00;;;;;;;14.48;6.68;;;;;;;;;;2040819;28;20098;-77
2024/04/05 02:13:19;;;;;;;18.13;7.70;;;;;;;;;;2035115;29;20032;-78
2024/04/05 02:14:38;;;;;;;11.80;6.82;;;;;;;;;;2032568;29;20417;-77
2024/04/05 02:15:57;;;;;;;10.27;6.55;;;;;;;;;;2035892;29;20047;-77
2024/04/05 02:17:16;;;;;;;13.88;6.78;;;;;;;;;;2035599;29;20122;-77
2024/04/05 02:18:34;;;;;;;15.20;6.65;;;;;;;;;;2035682;29;20521;-77
2024/04/05 02:19:54;;;;;;;13.15;6.22;;;;;;;;;;2035407;29;20032;-77
2024/04/05 02:21:13;;;;;;;11.57;5.78;;;;;;;;;;2035414;29;20028;-78
2024/04/05 02:22:33;;;;;;;11.57;6.22;;;;;;;;;;2034682;29;20088;-78
2024/04/05 02:23:52;;;;;;;18.60;6.72;;;;;;;;;;2036066;29;20544;-78
2024/04/05 02:25:12;;;;;;;16.25;6.97;;;;;;;;;;2036070;29;20150;-78
2024/04/05 02:26:30;;;;;;;13.27;6.05;;;;;;;;;;2034584;29;20016;-76
2024/04/05 02:27:49;;;;;;;14.30;6.25;;;;;;;;;;2035471;29;20035;-77
2024/04/05 02:29:09;;;;;;;11.32;6.10;;;;;;;;;;2033768;29;20051;-77
2024/04/05 02:30:28;;;;;;;9.95;6.28;;;;;;;;;;2042606;28;20040;-76
2024/04/05 02:31:47;;;;;;;12.75;6.22;;;;;;;;;;2036835;29;20115;-77
2024/04/05 02:33:06;;;;;;;13.93;5.88;;;;;;;;;;2035262;29;20421;-78
2024/04/05 02:34:25;;;;;;;15.95;7.03;;;;;;;;;;2033981;29;23384;-76
2024/04/05 02:35:44;;;;;;;8.93;5.90;;;;;;;;;;2036991;29;20032;-78
2024/04/05 02:37:03;;;;;;;7.85;5.20;;;;;;;;;;2037490;29;20031;-76
2024/04/05 02:38:22;;;;;;;12.52;5.68;;;;;;;;;;2035217;29;20031;-77
2024/04/05 02:39:41;;;;;;;11.90;6.30;;;;;;;;;;2042328;28;20174;-77
2024/04/05 02:41:00;;;;;;;10.15;6.07;;;;;;;;;;2037800;29;20508;-76
2024/04/05 02:42:19;;;;;;;14.27;5.93;;;;;;;;;;2033154;29;20043;-77
2024/04/05 02:43:38;;;;;;;9.32;5.78;;;;;;;;;;2032783;29;20031;-77
2024/04/05 02:44:58;;;;;;;10.15;5.80;;;;;;;;;;2040590;28;20024;-77
2024/04/05 02:46:17;;;;;;;10.52;6.10;;;;;;;;;;2040578;28;20036;-78
2024/04/05 02:47:36;;;;;;;9.02;5.70;;;;;;;;;;2036417;29;20451;-77
2024/04/05 02:48:55;;;;;;;12.75;6.40;;;;;;;;;;2037867;29;20509;-77
2024/04/05 02:50:14;;;;;;;6.13;5.07;;;;;;;;;;2037049;29;20485;-76
2024/04/05 02:51:33;;;;;;;8.32;5.43;;;;;;;;;;2034026;29;20028;-77
2024/04/05 02:52:52;;;;;;;10.93;5.40;;;;;;;;;;2035016;29;20501;-78
2024/04/05 02:54:11;;;;;;;9.02;5.68;;;;;;;;;;2043328;28;20035;-76
2024/04/05 02:55:30;;;;;;;8.23;5.53;;;;;;;;;;2039945;28;20032;-76
2024/04/05 02:56:49;;;;;;;6.90;5.03;;;;;;;;;;2038309;29;20043;-77
2024/04/05 02:58:09;;;;;;;7.50;5.05;;;;;;;;;;2037950;29;20040;-77
2024/04/05 02:59:28;;;;;;;7.00;5.65;;;;;;;;;;2037094;29;20043;-77
2024/04/05 03:00:50;;;;;;;12.65;5.32;;;;;;;;;;2037461;29;21665;-77
2024/04/05 03:02:09;;;;;;;9.40;5.50;;;;;;;;;;2038812;29;20031;-77
2024/04/05 03:03:29;;;;;;;9.43;5.38;;;;;;;;;;2037554;29;20055;-78
2024/04/05 03:04:48;;;;;;;12.00;5.78;;;;;;;;;;2037535;29;20425;-77
2024/04/05 03:06:07;;;;;;;6.43;5.00;;;;;;;;;;2037706;29;20040;-77
2024/04/05 03:07:26;;;;;;;9.02;5.43;;;;;;;;;;2034971;29;20039;-77
2024/04/05 03:08:44;;;;;;;9.70;5.50;;;;;;;;;;2041177;28;20027;-78
2024/04/05 03:10:05;;;;;;;8.63;5.18;;;;;;;;;;2039305;28;20456;-77
2024/04/05 03:11:24;;;;;;;8.75;5.32;;;;;;;;;;2042535;28;20093;-76
2024/04/05 03:12:42;;;;;;;9.95;5.50;;;;;;;;;;2037475;29;20122;-77
2024/04/05 03:14:01;;;;;;;9.82;5.20;;;;;;;;;;2040699;28;20142;-78
2024/04/05 03:15:20;;;;;;;9.27;4.80;;;;;;;;;;2037019;29;20448;-76
2024/04/05 03:16:39;;;;;;;8.15;5.43;;;;;;;;;;2034224;29;20110;-77
2024/04/05 03:17:58;;;;;;;7.43;5.28;;;;;;;;;;2038487;29;20486;-76
2024/04/05 03:19:17;;;;;;;6.88;4.70;;;;;;;;;;2037971;29;20039;-78
2024/04/05 03:20:36;;;;;;;7.72;4.60;;;;;;;;;;2037201;29;20382;-77
2024/04/05 03:21:55;;;;;;;10.07;5.40;;;;;;;;;;2037880;29;20111;-77
2024/04/05 03:23:14;;;;;;;6.90;4.72;;;;;;;;;;2039202;29;20020;-77
2024/04/05 03:24:34;;;;;;;11.27;5.22;;;;;;;;;;2038044;29;20081;-77
2024/04/05 03:25:54;;;;;;;9.55;4.72;;;;;;;;;;2041391;29;20024;-79
2024/04/05 03:27:13;;;;;;;8.25;4.72;;;;;;;;;;2046442;29;20023;-79
2024/04/05 03:28:32;;;;;;;5.05;4.63;;;;;;;;;;2046740;29;20024;-79
2024/04/05 03:29:52;;;;;;;7.35;5.50;;;;;;;;;;2047395;29;20020;-79
2024/04/05 03:31:11;;;;;;;7.10;4.35;;;;;;;;;;2043260;29;20035;-79
2024/04/05 03:32:30;;;;;;;6.22;4.60;;;;;;;;;;2039765;29;20036;-79
2024/04/05 03:33:49;;;;;;;5.47;4.80;;;;;;;;;;2039384;29;20055;-79
2024/04/05 03:35:09;;;;;;;9.18;4.95;;;;;;;;;;2045030;29;20083;-78
2024/04/05 03:36:27;;;;;;;8.65;5.15;;;;;;;;;;2042099;29;20032;-78
2024/04/05 03:37:48;;;;;;;7.55;5.10;;;;;;;;;;2037608;29;20040;-78
2024/04/05 03:39:08;;;;;;;7.50;4.60;;;;;;;;;;2037820;29;20047;-78
2024/04/05 03:40:27;;;;;;;6.90;4.78;;;;;;;;;;2045075;28;20035;-78
2024/04/05 03:41:46;;;;;;;8.18;4.50;;;;;;;;;;2036217;29;20565;-78
2024/04/05 03:43:08;;;;;;;5.70;4.35;;;;;;;;;;2037430;29;20044;-78
2024/04/05 03:44:27;;;;;;;6.32;4.32;;;;;;;;;;2042228;28;20598;-78
2024/04/05 03:45:45;;;;;;;5.15;4.25;;;;;;;;;;2037068;29;20043;-79
2024/04/05 03:47:04;;;;;;;5.85;3.95;;;;;;;;;;2037993;29;20552;-78
2024/04/05 03:48:23;;;;;;;5.15;4.20;;;;;;;;;;2037159;29;20114;-78
2024/04/05 03:49:42;;;;;;;6.55;3.85;;;;;;;;;;2034696;29;20381;-78
2024/04/05 03:51:01;;;;;;;6.35;3.95;;;;;;;;;;2037210;29;20035;-78
2024/04/05 03:52:20;;;;;;;5.57;3.80;;;;;;;;;;2036812;29;20409;-78
2024/04/05 03:53:39;;;;;;;7.07;3.75;;;;;;;;;;2038104;29;20044;-78
2024/04/05 03:54:57;;;;;;;6.10;3.80;;;;;;;;;;2038067;29;20031;-79
2024/04/05 03:56:16;;;;;;;3.78;3.25;;;;;;;;;;2034157;29;20036;-78
2024/04/05 03:57:37;;;;;;;5.80;3.53;;;;;;;;;;2037705;29;20036;-78
2024/04/05 03:58:56;;;;;;;8.00;3.92;;;;;;;;;;2035137;29;20051;-78
2024/04/05 04:00:15;;;;;;;3.10;2.70;;;;;;;;;;2037465;29;20019;-80
2024/04/05 04:01:33;;;;;;;4.82;3.83;;;;;;;;;;2033776;29;20763;-79
2024/04/05 04:02:52;;;;;;;3.70;3.17;;;;;;;;;;2034923;29;20040;-79
2024/04/05 04:04:11;;;;;;;6.75;3.35;;;;;;;;;;2037249;29;20043;-79
2024/04/05 04:05:30;;;;;;;5.80;3.10;;;;;;;;;;2036773;29;20103;-79
2024/04/05 04:06:52;;;;;;;5.10;3.38;;;;;;;;;;2038069;29;20028;-79
2024/04/05 04:08:11;;;;;;;5.78;3.72;;;;;;;;;;2036245;29;20032;-79
2024/04/05 04:09:30;;;;;;;3.92;3.40;;;;;;;;;;2037366;29;20493;-79
2024/04/05 04:10:52;;;;;;;3.67;2.92;;;;;;;;;;2038351;28;20135;-79
2024/04/05 04:12:11;;;;;;;4.38;3.05;;;;;;;;;;2045576;28;20442;-79
2024/04/05 04:13:30;;;;;;;3.10;2.80;;;;;;;;;;2050035;28;20110;-79
2024/04/05 04:14:49;;;;;;;5.53;3.28;;;;;;;;;;2044690;28;20504;-79
2024/04/05 04:16:08;;;;;;;3.22;2.83;;;;;;;;;;2042120;28;20043;-79
2024/04/05 04:17:27;;;;;;;3.50;3.10;;;;;;;;;;2044578;28;20036;-79
2024/04/05 04:18:48;;;;;;;4.57;3.20;;;;;;;;;;2049312;28;20043;-76
2024/04/05 04:20:08;;;;;;;6.18;3.30;;;;;;;;;;2046280;28;20027;-77
2024/04/05 04:21:27;;;;;;;4.07;3.35;;;;;;;;;;2051599;28;20492;-76
2024/04/05 04:22:46;;;;;;;4.35;2.88;;;;;;;;;;2053931;28;20035;-76
2024/04/05 04:24:05;;;;;;;3.58;3.17;;;;;;;;;;2045936;28;20035;-76
2024/04/05 04:25:24;;;;;;;4.28;3.05;;;;;;;;;;2049854;28;20075;-77
2024/04/05 04:26:43;;;;;;;3.25;2.95;;;;;;;;;;2053785;28;20050;-77
2024/04/05 04:28:02;;;;;;;4.78;3.15;;;;;;;;;;2053370;28;20035;-77
2024/04/05 04:29:22;;;;;;;3.47;2.72;;;;;;;;;;2053012;28;20105;-77
2024/04/05 04:30:45;;;;;;;5.68;2.95;;;;;;;;;;2044616;28;20035;-77
2024/04/05 04:32:04;;;;;;;;;;;;;;;;;;2045686;28;20035;-77
2024/04/05 04:33:23;;;;;;;3.88;3.00;;;;;;;;;;2041009;28;20415;-77
2024/04/05 04:34:43;;;;;;;5.65;2.92;;;;;;;;;;2050175;28;20043;-78
2024/04/05 04:36:03;;;;;;;5.93;2.70;;;;;;;;;;2052776;28;20031;-77
2024/04/05 04:37:22;;;;;;;3.72;2.75;;;;;;;;;;2036499;29;20401;-77
2024/04/05 04:38:42;;;;;;;2.70;2.45;;;;;;;;;;2044984;28;20507;-78
2024/04/05 04:40:00;;;;;;;6.90;2.92;;;;;;;;;;2051960;28;20121;-77
2024/04/05 04:41:20;;;;;;;3.92;2.88;;;;;;;;;;2051521;28;20055;-77
2024/04/05 04:42:39;;;;;;;6.90;2.88;;;;;;;;;;2054070;28;20038;-78
2024/04/05 04:43:58;;;;;;;3.38;2.90;;;;;;;;;;2044519;28;20512;-78
2024/04/05 04:45:20;;;;;;;2.95;2.65;;;;;;;;;;2049897;28;20340;-78
2024/04/05 04:46:39;;;;;;;5.53;3.40;;;;;;;;;;2051387;28;20035;-77
2024/04/05 04:47:58;;;;;;;3.85;2.90;;;;;;;;;;2052793;28;20048;-79
2024/04/05 04:49:17;;;;;;;3.42;2.92;;;;;;;;;;2052136;28;20030;-77
2024/04/05 04:50:36;;;;;;;3.05;2.80;;;;;;;;;;2052072;28;20038;-78
2024/04/05 04:51:58;;;;;;;4.57;3.47;;;;;;;;;;2044906;28;20520;-77
2024/04/05 04:53:17;;;;;;;6.45;3.03;;;;;;;;;;2050338;28;20027;-78
2024/04/05 04:54:36;;;;;;;6.90;3.33;;;;;;;;;;2045175;28;20524;-77
2024/04/05 04:55:55;;;;;;;3.50;2.63;;;;;;;;;;2040985;28;20043;-79
2024/04/05 04:57:14;;;;;;;5.05;3.00;;;;;;;;;;2049663;28;20396;-79
2024/04/05 04:58:34;;;;;;;3.08;2.83;;;;;;;;;;2044987;28;20047;-78
2024/04/05 04:59:53;;;;;;;5.35;3.30;;;;;;;;;;2044342;28;20397;-77
2024/04/05 05:01:12;;;;;;;5.68;2.95;;;;;;;;;;2045257;28;20015;-77
2024/04/05 05:02:30;;;;;;;7.03;3.20;;;;;;;;;;2049918;28;20023;-77
2024/04/05 05:03:49;;;;;;;4.03;3.30;;;;;;;;;;2042707;28;20023;-81
2024/04/05 05:05:11;;;;;;;3.85;3.15;;;;;;;;;;2041107;28;20095;-79
2024/04/05 05:06:32;;;;;;;3.03;2.80;;;;;;;;;;2052337;28;20420;-79
2024/04/05 05:07:51;;;;;;;3.00;2.70;;;;;;;;;;2044343;28;20024;-79
2024/04/05 05:09:15;;;;;;;3.50;2.63;;;;;;;;;;2044275;28;20031;-78
2024/04/05 05:10:38;;;;;;;5.78;3.05;;;;;;;;;;2042018;28;21339;-78
2024/04/05 05:11:58;;;;;;;3.50;2.92;;;;;;;;;;2051592;28;20138;-78
2024/04/05 05:13:18;;;;;;;5.47;2.83;;;;;;;;;;2053158;28;20428;-79
2024/04/05 05:14:37;;;;;;;4.45;2.80;;;;;;;;;;2044957;28;20082;-79
2024/04/05 05:15:56;;;;;;;6.05;2.85;;;;;;;;;;2041683;28;20047;-79
2024/04/05 05:17:15;;;;;;;3.50;2.85;;;;;;;;;;2042332;28;20562;-81
2024/04/05 05:18:34;;;;;;;3.35;2.33;;;;;;;;;;2049865;28;20126;-80
2024/04/05 05:19:53;;;;;;;3.38;2.35;;;;;;;;;;2044256;28;20516;-81
2024/04/05 05:21:12;;;;;;;5.82;2.70;;;;;;;;;;2041806;28;20039;-79
2024/04/05 05:22:31;;;;;;;6.03;3.13;;;;;;;;;;2040688;28;20028;-79
2024/04/05 05:23:50;;;;;;;4.00;2.42;;;;;;;;;;2043773;28;20027;-79
2024/04/05 05:25:09;;;;;;;3.50;2.97;;;;;;;;;;2048858;28;20032;-80
2024/04/05 05:26:28;;;;;;;5.30;2.75;;;;;;;;;;2050454;28;20144;-80
2024/04/05 05:27:48;;;;;;;3.58;2.50;;;;;;;;;;2052983;28;20034;-80
2024/04/05 05:29:07;;;;;;;3.38;2.70;;;;;;;;;;2052003;28;20072;-80
2024/04/05 05:30:29;;;;;;;4.40;2.45;;;;;;;;;;2044584;28;20035;-80
2024/04/05 05:31:48;;;;;;;2.70;2.50;;;;;;;;;;2040497;28;20063;-80
2024/04/05 05:33:08;;;;;;;2.85;2.65;;;;;;;;;;2048201;28;20035;-80
2024/04/05 05:34:27;;;;;;;3.10;2.90;;;;;;;;;;2043413;28;20039;-80
2024/04/05 05:35:47;;;;;;;3.38;3.00;;;;;;;;;;2040403;28;20039;-80
2024/04/05 05:37:06;;;;;;;5.95;2.58;;;;;;;;;;2047547;28;20042;-79
2024/04/05 05:38:27;;;;;;;2.22;2.03;;;;;;;;;;2042166;28;22204;-82
2024/04/05 05:39:46;;;;;;;5.40;2.70;;;;;;;;;;2048522;28;20038;-81
2024/04/05 05:41:05;;;;;;;3.97;2.63;;;;;;;;;;2043541;28;20405;-80
2024/04/05 05:42:24;;;;;;;3.92;2.28;;;;;;;;;;2048286;28;20067;-80
2024/04/05 05:43:42;;;;;;;3.33;2.33;;;;;;;;;;2042615;28;20039;-81
2024/04/05 05:45:02;;;;;;;5.45;2.35;;;;;;;;;;2048504;28;20035;-81
2024/04/05 05:46:21;;;;;;;2.70;2.50;;;;;;;;;;2043877;28;20039;-80
2024/04/05 05:47:41;;;;;;;2.90;2.60;;;;;;;;;;2039941;28;20035;-81
2024/04/05 05:49:00;;;;;;;3.20;2.38;;;;;;;;;;2039865;28;20416;-80
2024/04/05 05:50:20;;;;;;;2.78;2.53;;;;;;;;;;2048654;28;20591;-80
2024/04/05 05:51:39;;;;;;;3.10;2.50;;;;;;;;;;2051641;28;20051;-82
2024/04/05 05:52:58;;;;;;;4.47;2.25;;;;;;;;;;2042755;28;20027;-79
2024/04/05 05:54:19;;;;;;;2.50;2.30;;;;;;;;;;2049631;28;20031;-80
2024/04/05 05:55:38;;;;;;;6.18;2.30;;;;;;;;;;2050954;28;20038;-79
2024/04/05 05:56:57;;;;;;;7.18;2.65;;;;;;;;;;2044212;28;20110;-79
2024/04/05 05:58:17;;;;;;;2.92;2.40;;;;;;;;;;2046268;28;20038;-79
2024/04/05 05:59:36;;;;;;;4.65;2.70;;;;;;;;;;2050316;28;20476;-79
2024/04/05 06:00:57;;;;;;;3.33;2.22;;;;;;;;;;2043890;28;20032;-79
2024/04/05 06:02:16;;;;;;;2.38;2.15;;;;;;;;;;2049008;28;20731;-79
2024/04/05 06:03:35;;;;;;;5.22;1.98;;;;;;;;;;2051726;28;20111;-78
2024/04/05 06:04:54;;;;;;;5.00;2.38;;;;;;;;;;2044297;28;20161;-78
2024/04/05 06:06:13;;;;;;;2.40;2.20;;;;;;;;;;2041763;28;20086;-79
2024/04/05 06:07:32;;;;;;;5.60;2.10;;;;;;;;;;2050021;28;20038;-78
2024/04/05 06:08:52;;;;;;;2.90;2.22;;;;;;;;;;2052100;28;20050;-78
2024/04/05 06:10:11;;;;;;;2.50;2.30;;;;;;;;;;2047884;28;20055;-78
2024/04/05 06:11:31;;;;;;;4.35;2.35;;;;;;;;;;2049940;28;20039;-79
2024/04/05 06:12:50;;;;;;;3.60;2.20;;;;;;;;;;2045119;28;20121;-78
2024/04/05 06:14:09;;;;;;;2.50;1.80;;;;;;;;;;2045141;28;20023;-78
2024/04/05 06:15:28;;;;;;;6.40;2.10;;;;;;;;;;2048136;28;20031;-79
2024/04/05 06:16:48;;;;;;;2.85;2.50;;;;;;;;;;2053282;28;20445;-79
2024/04/05 06:18:07;;;;;;;2.35;2.00;;;;;;;;;;2049895;28;20154;-80
2024/04/05 06:19:26;;;;;;;4.75;2.20;;;;;;;;;;2051581;28;20042;-80
2024/04/05 06:20:51;;;;;;;2.20;2.00;;;;;;;;;;2051956;28;20034;-80
2024/04/05 06:22:10;;;;;;;2.88;1.90;;;;;;;;;;2052224;28;20031;-80
2024/04/05 06:23:29;;;;;;;2.10;1.83;;;;;;;;;;2044729;28;20031;-80
2024/04/05 06:24:49;;;;;;;2.28;1.83;;;;;;;;;;2040756;28;20066;-80
2024/04/05 06:26:08;;;;;;;3.97;1.95;;;;;;;;;;2042136;28;20411;-80
2024/04/05 06:27:27;;;;;;;3.45;1.80;;;;;;;;;;2041376;28;20101;-78
2024/04/05 06:28:46;;;;;;;4.03;1.80;;;;;;;;;;2047713;28;20034;-78
2024/04/05 06:30:08;;;;;;;5.63;1.95;;;;;;;;;;2046854;28;20035;-78
2024/04/05 06:31:27;;;;;;;3.15;1.92;;;;;;;;;;2049147;28;20633;-79
2024/04/05 06:32:46;;;;;;;2.53;1.95;;;;;;;;;;2052886;28;20026;-79
2024/04/05 06:34:06;;;;;;;4.18;1.90;;;;;;;;;;2046851;28;20449;-78
2024/04/05 06:35:25;;;;;;;2.67;2.28;;;;;;;;;;2050569;28;20030;-78
2024/04/05 06:36:45;;;;;;;3.42;1.90;;;;;;;;;;2046978;28;20028;-79
2024/04/05 06:38:04;;;;;;;2.65;1.83;;;;;;;;;;2051137;28;20668;-79
2024/04/05 06:39:24;;;;;;;2.05;1.85;;;;;;;;;;2054568;28;20934;-78
2024/04/05 06:40:43;;;;;;;3.78;1.88;;;;;;;;;;2045563;28;20046;-77
2024/04/05 06:42:02;;;;;;;6.57;2.00;;;;;;;;;;2046628;28;20027;-77
2024/04/05 06:43:24;;;;;;;3.75;2.03;;;;;;;;;;2051312;28;20031;-78
2024/04/05 06:44:43;;;;;;;3.67;1.70;;;;;;;;;;2054201;28;20956;-77
2024/04/05 06:46:03;;;;;;;4.57;1.65;;;;;;;;;;2044850;28;20035;-80
2024/04/05 06:47:24;;;;;;;2.42;1.70;;;;;;;;;;2050763;28;20027;-77
2024/04/05 06:48:43;;;;;;;3.65;1.85;;;;;;;;;;2056004;28;20027;-78
2024/04/05 06:50:04;;;;;;;3.45;2.00;;;;;;;;;;2055469;28;20027;-78
2024/04/05 06:51:23;;;;;;;2.15;1.52;;;;;;;;;;2050438;28;20126;-78
2024/04/05 06:52:42;;;;;;;1.75;1.65;;;;;;;;;;2050060;28;20043;-80
2024/04/05 06:54:02;;;;;;;3.58;1.90;;;;;;;;;;2050390;28;20031;-78
2024/04/05 06:55:22;;;;;;;2.95;1.83;;;;;;;;;;2058211;28;20031;-78
2024/04/05 06:56:41;;;;;;;2.95;2.10;;;;;;;;;;2050841;28;20027;-78
2024/04/05 06:58:00;;;;;;;1.80;1.63;;;;;;;;;;2045703;28;20780;-78
2024/04/05 06:59:19;;;;;;;1.88;1.60;;;;;;;;;;2046671;28;20035;-77
2024/04/05 07:00:39;;;;;;;2.00;1.90;;;;;;;;;;2054613;28;20035;-78
2024/04/05 07:01:58;;;;;;;4.18;1.80;;;;;;;;;;2055225;28;20616;-78
2024/04/05 07:03:19;;;;;;;3.42;1.50;;;;;;;;;;2045788;28;20035;-77
2024/04/05 07:04:41;;;;;;;2.78;1.73;;;;;;;;;;2051748;28;20070;-78
2024/04/05 07:06:02;;;;;;;2.30;1.83;;;;;;;;;;2044557;28;20050;-78
2024/04/05 07:07:21;;;;;;;1.83;1.73;;;;;;;;;;2041918;28;20040;-80
2024/04/05 07:08:40;;;;;;;2.42;1.52;;;;;;;;;;2051142;28;20019;-76
2024/04/05 07:09:59;;;;;;;1.60;1.40;;;;;;;;;;2046095;28;20031;-79
2024/04/05 07:11:18;;;;;;;2.60;1.90;;;;;;;;;;2050715;28;20056;-79
2024/04/05 07:12:37;;;;;;;2.55;2.08;;;;;;;;;;2045070;28;20035;-78
2024/04/05 07:13:57;;;;;;;3.60;1.73;;;;;;;;;;2049601;28;20031;-77
2024/04/05 07:15:18;;;;;;;2.72;1.67;;;;;;;;;;2054494;28;20492;-78
2024/04/05 07:16:37;;;;;;;2.60;1.60;;;;;;;;;;2045877;28;20137;-78
2024/04/05 07:17:57;;;;;;;2.95;1.70;;;;;;;;;;2042430;28;20028;-76
2024/04/05 07:19:17;;;;;;;2.63;1.60;;;;;;;;;;2044917;28;20039;-77
2024/04/05 07:20:36;;;;;;;4.20;1.80;;;;;;;;;;2050218;28;20114;-78
2024/04/05 07:21:55;;;;;;;2.22;2.03;;;;;;;;;;2046735;28;20528;-77
2024/04/05 07:23:14;;;;;;;2.58;1.90;;;;;;;;;;2043249;28;20043;-79
2024/04/05 07:24:34;;;;;;;2.40;2.20;;;;;;;;;;2042488;28;20467;-77
2024/04/05 07:25:55;;;;;;;3.35;1.83;;;;;;;;;;2042419;28;20050;-77
2024/04/05 07:27:14;;;;;;;2.35;1.40;;;;;;;;;;2049815;28;20035;-77
2024/04/05 07:28:33;;;;;;;3.80;1.90;;;;;;;;;;2053657;28;20379;-79
2024/04/05 07:29:52;;;;;;;2.03;1.70;;;;;;;;;;2044557;28;20106;-77
2024/04/05 07:31:13;;;;;;;1.48;1.38;;;;;;;;;;2049239;28;20559;-76
2024/04/05 07:32:32;;;;;;;2.65;1.92;;;;;;;;;;2042875;28;20031;-78
2024/04/05 07:33:51;;;;;;;2.88;1.58;;;;;;;;;;2049819;28;20509;-77
2024/04/05 07:35:09;;;;;;;1.58;1.48;;;;;;;;;;2053584;28;20062;-76
2024/04/05 07:36:29;;;;;;;2.55;1.67;;;;;;;;;;2045679;28;20062;-77
2024/04/05 07:37:48;;;;;;;2.65;1.83;;;;;;;;;;2051336;28;20022;-79
2024/04/05 07:39:08;;;;;;;3.92;2.10;;;;;;;;;;2054031;28;20030;-80
2024/04/05 07:40:27;;;;;;;4.07;1.77;;;;;;;;;;2045257;28;20035;-78
2024/04/05 07:41:46;;;;;;;2.63;1.60;;;;;;;;;;2042998;28;20560;-77
2024/04/05 07:43:06;;;;;;;1.45;1.35;;;;;;;;;;2049005;28;20042;-78
2024/04/05 07:44:25;;;;;;;1.75;1.65;;;;;;;;;;2044937;28;20367;-80
2024/04/05 07:45:44;;;;;;;1.92;1.60;;;;;;;;;;2051313;28;20035;-79
2024/04/05 07:47:03;;;;;;;1.88;1.75;;;;;;;;;;2044693;28;20508;-78
2024/04/05 07:48:22;;;;;;;2.70;1.50;;;;;;;;;;2043268;28;20106;-79
2024/04/05 07:49:43;;;;;;;3.00;1.60;;;;;;;;;;2040929;28;20523;-80
2024/04/05 07:51:04;;;;;;;2.53;1.52;;;;;;;;;;2049931;28;20034;-79
2024/04/05 07:52:23;;;;;;;4.32;1.55;;;;;;;;;;2045219;28;20106;-78
2024/04/05 07:53:42;;;;;;;1.48;1.38;;;;;;;;;;2044173;28;20023;-79